^^
Your Local Weather - Clay, NY Station Historical Data
Daily Summary for May 3, 2017 Units:  Metric    English   Both
« Previous Day
Next Day »
Daily Weekly Monthly Yearly Custom
  High: Low: Average:
Temperature: 12.1 °C 3.9 °C 8.1 °C
Dew Point: 5.2 °C -0.3 °C 2.3 °C
Humidity: 86% 46% 68%
Wind Speed: 9.7km/h 0km/h 4.3km/h
Wind Gust: 20.9km/h - -
Wind- - WNW
Pressure: 1022.6 hPa 1005.3 hPa -
Precipitation: 0.25 mm    
Historical Graphs
 
 
Tabular Data for May 3, 2017
Time Temperature Dew Point Pressure Wind Wind Speed Wind Gust Humidity Rainfall Rate (Hourly) solar
00:03 8.7 °C 4.3 °C 1005.3 hPa SW 4.8 km/h 4.8 km/h 74% 0 mm 0 W/m2
00:08 8.8 °C 4.4 °C 1005.3 hPa WSW 4.8 km/h 11.3 km/h 74% 0 mm 0 W/m2
00:10 8.8 °C 4.2 °C 1005.3 hPa West 4.8 km/h 9.7 km/h 73% 0 mm 0 W/m2
00:16 8.8 °C 4.1 °C 1005.3 hPa SW 4.8 km/h 9.7 km/h 72% 0 mm 0 W/m2
00:22 8.9 °C 4.1 °C 1005.6 hPa WSW 4.8 km/h 6.4 km/h 72% 0 mm 0 W/m2
00:28 8.9 °C 4.1 °C 1005.6 hPa West 3.2 km/h 6.4 km/h 72% 0 mm 0 W/m2
00:32 8.9 °C 4.1 °C 1005.6 hPa West 3.2 km/h 4.8 km/h 72% 0 mm 0 W/m2
00:38 8.9 °C 4.2 °C 1005.3 hPa WSW 3.2 km/h 4.8 km/h 72% 0 mm 0 W/m2
00:44 8.9 °C 3.9 °C 1005.6 hPa West 3.2 km/h 6.4 km/h 71% 0 mm 0 W/m2
00:50 8.9 °C 4.2 °C 1005.6 hPa WSW 1.6 km/h 1.6 km/h 72% 0 mm 0 W/m2
00:56 8.9 °C 4.2 °C 1005.3 hPa SW 3.2 km/h 6.4 km/h 72% 0 mm 0 W/m2
01:02 9 °C 4 °C 1005.6 hPa WSW 4.8 km/h 6.4 km/h 71% 0 mm 0 W/m2
01:08 9 °C 4 °C 1005.6 hPa West 4.8 km/h 6.4 km/h 71% 0 mm 0 W/m2
01:14 9.1 °C 4.1 °C 1005.6 hPa WSW 6.4 km/h 9.7 km/h 71% 0 mm 0 W/m2
01:20 9.1 °C 4.1 °C 1005.6 hPa SW 6.4 km/h 6.4 km/h 71% 0 mm 0 W/m2
01:26 9.1 °C 4.1 °C 1005.6 hPa WSW 4.8 km/h 8 km/h 71% 0 mm 0 W/m2
01:32 9.1 °C 4.1 °C 1005.6 hPa SW 3.2 km/h 4.8 km/h 71% 0 mm 0 W/m2
01:38 9 °C 4.2 °C 1005.6 hPa NW 4.8 km/h 12.9 km/h 72% 0 mm 0 W/m2
01:44 8.9 °C 4.2 °C 1006 hPa West 4.8 km/h 8 km/h 72% 0 mm 0 W/m2
01:50 8.9 °C 4.3 °C 1006 hPa West 4.8 km/h 4.8 km/h 73% 0 mm 0 W/m2
01:56 8.9 °C 4.3 °C 1006 hPa NW 3.2 km/h 8 km/h 73% 0 mm 0 W/m2
02:02 8.8 °C 4.4 °C 1006 hPa SW 3.2 km/h 4.8 km/h 74% 0 mm 0 W/m2
02:08 8.8 °C 4.4 °C 1006 hPa WNW 3.2 km/h 4.8 km/h 74% 0 mm 0 W/m2
02:14 8.8 °C 4.4 °C 1006 hPa WSW 3.2 km/h 8 km/h 74% 0 mm 0 W/m2
02:20 8.8 °C 4.4 °C 1006 hPa SW 4.8 km/h 4.8 km/h 74% 0 mm 0 W/m2
02:26 8.8 °C 4.4 °C 1006 hPa West 3.2 km/h 6.4 km/h 74% 0 mm 0 W/m2
02:32 8.8 °C 4.4 °C 1006 hPa WSW 3.2 km/h 4.8 km/h 74% 0 mm 0 W/m2
02:38 8.8 °C 4.4 °C 1006 hPa West 1.6 km/h 8 km/h 74% 0 mm 0 W/m2
02:44 8.9 °C 4.3 °C 1006 hPa West 3.2 km/h 6.4 km/h 73% 0 mm 0 W/m2
02:50 8.9 °C 4.3 °C 1006 hPa WSW 1.6 km/h 1.6 km/h 73% 0 mm 0 W/m2
02:56 8.9 °C 4.5 °C 1006 hPa West 3.2 km/h 6.4 km/h 74% 0 mm 0 W/m2
03:02 8.8 °C 4.6 °C 1006 hPa WSW 4.8 km/h 4.8 km/h 75% 0 mm 0 W/m2
03:08 8.7 °C 4.5 °C 1006 hPa WSW 3.2 km/h 4.8 km/h 75% 0 mm 0 W/m2
03:12 8.6 °C 4.6 °C 1006 hPa WSW 3.2 km/h 4.8 km/h 76% 0 mm 0 W/m2
03:18 8.6 °C 4.6 °C 1006 hPa SW 3.2 km/h 6.4 km/h 76% 0 mm 0 W/m2
03:24 8.6 °C 4.6 °C 1006 hPa NW 3.2 km/h 3.2 km/h 76% 0 mm 0 W/m2
03:30 8.6 °C 4.8 °C 1006.3 hPa WSW 1.6 km/h 1.6 km/h 77% 0 mm 0 W/m2
03:36 8.4 °C 4.7 °C 1006.3 hPa NW 1.6 km/h 3.2 km/h 77% 0 mm 0 W/m2
03:42 8.1 °C 5 °C 1006.7 hPa NW 1.6 km/h 3.2 km/h 81% 0 mm 0 W/m2
03:48 7.6 °C 5.1 °C 1006.7 hPa WNW 3.2 km/h 3.2 km/h 84% 0 mm 0 W/m2
03:54 7.4 °C 5.1 °C 1006.7 hPa WSW 3.2 km/h 11.3 km/h 85% 0 mm 0 W/m2
04:00 7.3 °C 5.2 °C 1007 hPa WSW 3.2 km/h 3.2 km/h 86% 0 mm 0 W/m2
04:06 7.3 °C 5.2 °C 1007 hPa WSW 1.6 km/h 3.2 km/h 86% 0 mm 0 W/m2
04:12 7.4 °C 5.2 °C 1007 hPa West 1.6 km/h 1.6 km/h 86% 0 mm 0 W/m2
04:18 7.5 °C 5.2 °C 1007 hPa WSW 3.2 km/h 8 km/h 85% 0 mm 0 W/m2
04:24 7.7 °C 4.8 °C 1007 hPa WSW 4.8 km/h 6.4 km/h 82% 0 mm 0 W/m2
04:30 7.8 °C 4.6 °C 1007 hPa WSW 4.8 km/h 4.8 km/h 80% 0 mm 0 W/m2
04:36 7.9 °C 4.4 °C 1007 hPa WNW 4.8 km/h 8 km/h 79% 0 mm 0 W/m2
04:42 7.9 °C 4.3 °C 1007 hPa West 4.8 km/h 4.8 km/h 78% 0 mm 0 W/m2
04:48 7.9 °C 4.2 °C 1007 hPa WSW 6.4 km/h 16.1 km/h 77% 0 mm 0 W/m2
04:54 7.9 °C 4.3 °C 1007 hPa WSW 4.8 km/h 6.4 km/h 78% 0 mm 0 W/m2
05:00 7.9 °C 4.1 °C 1007.3 hPa WSW 3.2 km/h 3.2 km/h 77% 0 mm 0 W/m2
05:06 7.8 °C 4.1 °C 1007.3 hPa WSW 3.2 km/h 3.2 km/h 77% 0 mm 0 W/m2
05:12 7.8 °C 4.1 °C 1007.3 hPa West 4.8 km/h 8 km/h 77% 0 mm 0 W/m2
05:18 7.8 °C 4.1 °C 1007.7 hPa SW 3.2 km/h 8 km/h 77% 0 mm 0 W/m2
05:24 7.8 °C 4.1 °C 1007.7 hPa WSW 3.2 km/h 8 km/h 77% 0 mm 0 W/m2
05:30 7.8 °C 4.1 °C 1007.7 hPa NW 3.2 km/h 6.4 km/h 77% 0 mm 0 W/m2
05:36 7.8 °C 4 °C 1007.7 hPa WNW 3.2 km/h 6.4 km/h 77% 0 mm 0 W/m2
05:42 7.7 °C 4.3 °C 1008 hPa NW 3.2 km/h 4.8 km/h 79% 0 mm 0 W/m2
05:48 7.3 °C 3.9 °C 1008 hPa NW 4.8 km/h 9.7 km/h 79% 0 mm 0 W/m2
05:54 7.1 °C 3.7 °C 1008 hPa West 6.4 km/h 6.4 km/h 79% 0 mm 0 W/m2
06:00 6.8 °C 3.7 °C 1008.4 hPa WNW 6.4 km/h 9.7 km/h 81% 0 mm 0 W/m2
06:06 6.6 °C 3.7 °C 1008.7 hPa WNW 6.4 km/h 9.7 km/h 82% 0 mm 0 W/m2
06:12 6.4 °C 3.6 °C 1008.7 hPa NW 6.4 km/h 6.4 km/h 82% 0 mm 5 W/m2
06:18 6.4 °C 3.6 °C 1009 hPa WNW 4.8 km/h 6.4 km/h 82% 0 mm 5 W/m2
06:24 6.4 °C 3.4 °C 1009 hPa NW 4.8 km/h 17.7 km/h 81% 0 mm 11 W/m2
06:30 6.3 °C 2.9 °C 1009 hPa WSW 8 km/h 8 km/h 79% 0 mm 12 W/m2
06:36 6.3 °C 2.9 °C 1009.4 hPa West 6.4 km/h 8 km/h 79% 0 mm 16 W/m2
06:42 6.3 °C 2.7 °C 1009.4 hPa WNW 4.8 km/h 6.4 km/h 78% 0 mm 30 W/m2
06:48 6.3 °C 2.6 °C 1009.4 hPa SW 4.8 km/h 14.5 km/h 77% 0 mm 33 W/m2
06:54 6.3 °C 2.6 °C 1009.7 hPa NNW 6.4 km/h 9.7 km/h 77% 0 mm 56 W/m2
07:00 6.3 °C 2.6 °C 1009.7 hPa NW 4.8 km/h 4.8 km/h 77% 0 mm 60 W/m2
07:06 6.4 °C 2.4 °C 1010 hPa WNW 3.2 km/h 4.8 km/h 76% 0 mm 70 W/m2
07:12 6.4 °C 2.5 °C 1010 hPa WNW 3.2 km/h 4.8 km/h 76% 0 mm 51 W/m2
07:18 6.4 °C 2.3 °C 1010 hPa NW 3.2 km/h 8 km/h 75% 0 mm 51 W/m2
07:24 6.5 °C 2.4 °C 1010.4 hPa West 3.2 km/h 8 km/h 75% 0 mm 60 W/m2
07:30 6.3 °C 2.1 °C 1010.4 hPa WNW 6.4 km/h 9.7 km/h 74% 0 mm 69 W/m2
07:36 6.2 °C 1.9 °C 1010.4 hPa WNW 8 km/h 9.7 km/h 74% 0 mm 91 W/m2
07:42 6.1 °C 1.8 °C 1010.7 hPa WNW 8 km/h 8 km/h 74% 0 mm 86 W/m2
07:48 6.1 °C 2 °C 1010.7 hPa WNW 8 km/h 9.7 km/h 75% 0 mm 91 W/m2
07:54 6.1 °C 1.8 °C 1010.7 hPa WNW 6.4 km/h 8 km/h 74% 0 mm 134 W/m2
08:00 6.3 °C 2.1 °C 1010.7 hPa WNW 6.4 km/h 6.4 km/h 74% 0 mm 264 W/m2
08:06 6.2 °C 1.6 °C 1011.1 hPa WNW 6.4 km/h 11.3 km/h 72% 0 mm 83 W/m2
08:12 6.1 °C 1.6 °C 1011.1 hPa WSW 6.4 km/h 6.4 km/h 73% 0 mm 93 W/m2
08:16 6.1 °C 1.4 °C 1011.1 hPa WNW 6.4 km/h 11.3 km/h 72% 0 mm 121 W/m2
08:22 6.1 °C 1.4 °C 1011.4 hPa WNW 6.4 km/h 6.4 km/h 72% 0 mm 220 W/m2
08:28 6.2 °C 1.7 °C 1011.4 hPa WNW 6.4 km/h 6.4 km/h 73% 0 mm 113 W/m2
08:34 6 °C 1.9 °C 1011.4 hPa WSW 6.4 km/h 9.7 km/h 75% 0 mm 271 W/m2
08:40 5.8 °C 2.1 °C 1011.7 hPa WNW 6.4 km/h 8 km/h 77% 0 mm 193 W/m2
08:46 5.6 °C 2.2 °C 1011.7 hPa NW 6.4 km/h 8 km/h 79% 0 mm 162 W/m2
08:52 5.2 °C 2.2 °C 1012.1 hPa NW 6.4 km/h 6.4 km/h 81% 0 mm 116 W/m2
08:58 5 °C 2.2 °C 1012.1 hPa NW 6.4 km/h 6.4 km/h 82% 0 mm 107 W/m2
09:04 4.9 °C 2.2 °C 1012.4 hPa WNW 4.8 km/h 8 km/h 83% 0 mm 163 W/m2
09:10 4.9 °C 2.4 °C 1012.4 hPa West 4.8 km/h 12.9 km/h 84% 0 mm 165 W/m2
09:16 4.9 °C 2.4 °C 1012.4 hPa WNW 4.8 km/h 12.9 km/h 84% 0 mm 213 W/m2
09:22 5.2 °C 2.7 °C 1012.4 hPa NW 3.2 km/h 6.4 km/h 84% 0 mm 214 W/m2
09:28 5.4 °C 2.8 °C 1012.8 hPa West 3.2 km/h 6.4 km/h 83% 0 mm 181 W/m2
09:34 5.4 °C 2.1 °C 1012.8 hPa WSW 4.8 km/h 9.7 km/h 79% 0 mm 165 W/m2
09:40 5.4 °C 2.1 °C 1012.8 hPa WNW 6.4 km/h 6.4 km/h 79% 0 mm 269 W/m2
09:46 5.6 °C 1.8 °C 1013.1 hPa West 6.4 km/h 6.4 km/h 77% 0 mm 223 W/m2
09:52 5.8 °C 2.1 °C 1013.1 hPa WNW 4.8 km/h 6.4 km/h 77% 0 mm 229 W/m2
09:58 5.9 °C 1.8 °C 1013.1 hPa WNW 6.4 km/h 14.5 km/h 75% 0 mm 267 W/m2
10:04 5.9 °C 1.4 °C 1013.4 hPa WNW 6.4 km/h 20.9 km/h 73% 0 mm 197 W/m2
10:10 5.8 °C 1.2 °C 1013.4 hPa NW 9.7 km/h 9.7 km/h 72% 0 mm 204 W/m2
10:16 5.9 °C 1.4 °C 1013.8 hPa North 8 km/h 9.7 km/h 73% 0 mm 258 W/m2
10:22 6.1 °C 1.6 °C 1013.8 hPa WNW 6.4 km/h 6.4 km/h 73% 0 mm 264 W/m2
10:28 6.2 °C 1.3 °C 1013.8 hPa WNW 6.4 km/h 6.4 km/h 71% 0 mm 364 W/m2
10:34 6.2 °C 1.2 °C 1013.8 hPa WNW 6.4 km/h 8 km/h 70% 0 mm 265 W/m2
10:40 6.4 °C 1.7 °C 1013.8 hPa NW 6.4 km/h 11.3 km/h 72% 0 mm 355 W/m2
10:46 6.6 °C 1.7 °C 1014.1 hPa NW 8 km/h 12.9 km/h 71% 0 mm 279 W/m2
10:52 6.8 °C 1.9 °C 1014.1 hPa NW 4.8 km/h 6.4 km/h 71% 0 mm 244 W/m2
10:58 6.7 °C 1.2 °C 1014.1 hPa WNW 3.2 km/h 9.7 km/h 68% 0 mm 276 W/m2
11:04 6.2 °C 0.9 °C 1014.4 hPa WNW 6.4 km/h 12.9 km/h 69% 0 mm 320 W/m2
11:10 6.4 °C 1.3 °C 1014.4 hPa NNW 6.4 km/h 8 km/h 70% 0 mm 304 W/m2
11:16 6.3 °C 1.2 °C 1014.4 hPa NW 6.4 km/h 9.7 km/h 70% 0 mm 190 W/m2
11:22 6.2 °C 1.3 °C 1014.8 hPa NW 6.4 km/h 8 km/h 71% 0 mm 232 W/m2
11:28 6.2 °C 1.1 °C 1015.1 hPa NW 6.4 km/h 19.3 km/h 70% 0 mm 207 W/m2
11:34 6.1 °C 1.2 °C 1015.1 hPa WNW 6.4 km/h 6.4 km/h 71% 0 mm 220 W/m2
11:40 6.2 °C 1.2 °C 1015.1 hPa West 4.8 km/h 4.8 km/h 70% 0 mm 278 W/m2
11:46 6.3 °C 1.2 °C 1015.5 hPa NW 8 km/h 17.7 km/h 70% 0 mm 316 W/m2
11:52 6.5 °C 1.2 °C 1015.5 hPa NW 6.4 km/h 6.4 km/h 69% 0 mm 432 W/m2
11:58 6.9 °C 1.6 °C 1015.5 hPa WNW 6.4 km/h 8 km/h 69% 0 mm 302 W/m2
12:04 6.8 °C 1.6 °C 1015.8 hPa NW 6.4 km/h 9.7 km/h 69% 0 mm 436 W/m2
12:10 6.9 °C 1.2 °C 1015.8 hPa NW 8 km/h 8 km/h 67% 0 mm 494 W/m2
12:16 7.4 °C 2.1 °C 1016.1 hPa West 8 km/h 9.7 km/h 69% 0 mm 589 W/m2
12:22 7.4 °C 1.3 °C 1016.1 hPa NW 6.4 km/h 8 km/h 65% 0 mm 367 W/m2
12:28 7.3 °C 1.4 °C 1016.1 hPa West 6.4 km/h 8 km/h 66% 0 mm 357 W/m2
12:34 7.2 °C 1.4 °C 1016.5 hPa WNW 6.4 km/h 9.7 km/h 67% 0 mm 302 W/m2
12:40 7.3 °C 1.8 °C 1016.5 hPa WNW 4.8 km/h 4.8 km/h 68% 0 mm 336 W/m2
12:46 7.7 °C 1.7 °C 1016.8 hPa WNW 4.8 km/h 12.9 km/h 66% 0 mm 483 W/m2
12:52 7.5 °C 1.6 °C 1016.8 hPa NW 8 km/h 9.7 km/h 66% 0 mm 383 W/m2
12:58 8.1 °C 2.3 °C 1016.8 hPa NNW 6.4 km/h 9.7 km/h 67% 0 mm 387 W/m2
13:04 8.1 °C 1.9 °C 1016.8 hPa WNW 6.4 km/h 9.7 km/h 65% 0 mm 369 W/m2
13:10 8.1 °C 1.9 °C 1016.8 hPa WNW 6.4 km/h 6.4 km/h 65% 0 mm 554 W/m2
13:14 8.3 °C 2.5 °C 1016.8 hPa NW 6.4 km/h 9.7 km/h 67% 0 mm 478 W/m2
13:20 8.4 °C 1.9 °C 1017.2 hPa West 6.4 km/h 9.7 km/h 64% 0 mm 366 W/m2
13:26 8.2 °C 1.8 °C 1017.2 hPa WNW 6.4 km/h 12.9 km/h 64% 0 mm 454 W/m2
13:32 8.4 °C 2 °C 1017.2 hPa NW 4.8 km/h 6.4 km/h 64% 0 mm 429 W/m2
13:38 9.1 °C 2.4 °C 1017.5 hPa West 6.4 km/h 14.5 km/h 63% 0 mm 420 W/m2
13:44 9.3 °C 3.2 °C 1017.8 hPa WNW 8 km/h 16.1 km/h 66% 0 mm 1114 W/m2
13:50 9.2 °C 2.6 °C 1017.8 hPa WNW 8 km/h 11.3 km/h 63% 0 mm 1071 W/m2
13:56 9 °C 2.3 °C 1017.8 hPa NW 8 km/h 11.3 km/h 63% 0 mm 998 W/m2
14:02 10.2 °C 4.1 °C 1017.8 hPa NW 4.8 km/h 6.4 km/h 66% 0 mm 1025 W/m2
14:08 10 °C 2.1 °C 1017.8 hPa WNW 6.4 km/h 9.7 km/h 58% 0 mm 1023 W/m2
14:14 9.9 °C 2.3 °C 1017.8 hPa NW 8 km/h 11.3 km/h 59% 0 mm 909 W/m2
14:22 10.4 °C 3.4 °C 1018.2 hPa WNW 6.4 km/h 8 km/h 62% 0 mm 932 W/m2
14:28 10.5 °C 3.5 °C 1018.2 hPa WNW 6.4 km/h 9.7 km/h 62% 0 mm 953 W/m2
14:34 10.2 °C 2.5 °C 1018.2 hPa WNW 6.4 km/h 11.3 km/h 59% 0 mm 944 W/m2
14:36 10.1 °C 1.9 °C 1018.2 hPa NW 6.4 km/h 11.3 km/h 57% 0 mm 944 W/m2
14:42 10.2 °C 3.2 °C 1018.2 hPa NNW 8 km/h 8 km/h 62% 0 mm 900 W/m2
14:48 10.3 °C 1.6 °C 1018.2 hPa WNW 8 km/h 11.3 km/h 55% 0 mm 923 W/m2
14:54 10.3 °C 3.1 °C 1018.2 hPa NNW 8 km/h 9.7 km/h 61% 0 mm 928 W/m2
15:00 10.2 °C 1.8 °C 1018.2 hPa WNW 6.4 km/h 11.3 km/h 56% 0 mm 879 W/m2
15:06 10.1 °C 1.9 °C 1018.2 hPa NNW 8 km/h 11.3 km/h 57% 0 mm 896 W/m2
15:12 10.4 °C 3 °C 1018.2 hPa WNW 8 km/h 12.9 km/h 60% 0 mm 817 W/m2
15:18 10.7 °C 2.3 °C 1018.2 hPa NW 8 km/h 12.9 km/h 56% 0 mm 805 W/m2
15:24 10.9 °C 2.2 °C 1017.8 hPa WNW 6.4 km/h 9.7 km/h 55% 0 mm 795 W/m2
15:30 11.1 °C 3.1 °C 1018.2 hPa NW 8 km/h 8 km/h 58% 0 mm 784 W/m2
15:36 10.8 °C 2.6 °C 1017.8 hPa WNW 6.4 km/h 8 km/h 57% 0 mm 766 W/m2
15:42 11.1 °C 2.7 °C 1017.8 hPa WNW 6.4 km/h 8 km/h 56% 0 mm 754 W/m2
15:48 10.9 °C 2.9 °C 1017.8 hPa NW 6.4 km/h 8 km/h 58% 0 mm 749 W/m2
15:54 11.3 °C 2.1 °C 1017.8 hPa WNW 6.4 km/h 11.3 km/h 53% 0 mm 726 W/m2
16:00 11.1 °C 2.2 °C 1017.8 hPa West 8 km/h 8 km/h 54% 0 mm 719 W/m2
16:06 11.4 °C 2.1 °C 1017.8 hPa NW 8 km/h 11.3 km/h 53% 0 mm 696 W/m2
16:12 11.2 °C 1.7 °C 1017.8 hPa WNW 6.4 km/h 6.4 km/h 52% 0 mm 682 W/m2
16:18 11.2 °C 2.4 °C 1017.8 hPa NNW 8 km/h 8 km/h 55% 0 mm 664 W/m2
16:24 11.4 °C 1.9 °C 1017.8 hPa NNW 6.4 km/h 8 km/h 52% 0 mm 650 W/m2
16:30 11.4 °C 1.7 °C 1017.8 hPa NW 6.4 km/h 6.4 km/h 51% 0 mm 631 W/m2
16:36 11.3 °C 1.8 °C 1017.8 hPa NNW 6.4 km/h 11.3 km/h 52% 0 mm 619 W/m2
16:42 11.6 °C 1.8 °C 1017.8 hPa WSW 6.4 km/h 11.3 km/h 51% 0 mm 599 W/m2
16:48 11.5 °C 1.2 °C 1017.8 hPa NW 6.4 km/h 11.3 km/h 49% 0 mm 582 W/m2
16:54 11.5 °C 0.8 °C 1017.8 hPa NW 6.4 km/h 6.4 km/h 48% 0 mm 566 W/m2
17:00 11.6 °C 1.2 °C 1017.8 hPa WNW 6.4 km/h 6.4 km/h 49% 0 mm 427 W/m2
17:06 11.7 °C 1.6 °C 1018.2 hPa NW 6.4 km/h 6.4 km/h 50% 0 mm 399 W/m2
17:12 11.8 °C 0.9 °C 1018.2 hPa WNW 4.8 km/h 6.4 km/h 47% 0 mm 517 W/m2
17:18 11.8 °C 1.4 °C 1018.2 hPa NNW 4.8 km/h 8 km/h 49% 0 mm 383 W/m2
17:24 12.1 °C 1.4 °C 1018.2 hPa WNW 4.8 km/h 9.7 km/h 48% 0 mm 362 W/m2
17:30 12.1 °C 1.1 °C 1018.5 hPa WNW 4.8 km/h 4.8 km/h 47% 0 mm 156 W/m2
17:36 11.7 °C 0.7 °C 1018.2 hPa WNW 4.8 km/h 8 km/h 47% 0 mm 116 W/m2
17:42 11.6 °C 0.9 °C 1018.2 hPa West 6.4 km/h 6.4 km/h 48% 0 mm 107 W/m2
17:48 11.3 °C 0.4 °C 1018.2 hPa West 4.8 km/h 8 km/h 47% 0 mm 90 W/m2
17:54 11.4 °C 0.8 °C 1018.2 hPa West 4.8 km/h 6.4 km/h 48% 0 mm 54 W/m2
18:00 11.3 °C 0.4 °C 1017.8 hPa NW 4.8 km/h 8 km/h 47% 0 mm 60 W/m2
18:06 11.3 °C 0.7 °C 1017.8 hPa WNW 4.8 km/h 8 km/h 48% 0 mm 74 W/m2
18:12 11.4 °C 0.4 °C 1018.2 hPa SW 4.8 km/h 4.8 km/h 47% 0 mm 83 W/m2
18:18 11.4 °C 0.2 °C 1017.8 hPa West 3.2 km/h 4.8 km/h 46% 0 mm 63 W/m2
18:24 11.4 °C 0.8 °C 1017.8 hPa WNW 3.2 km/h 3.2 km/h 48% 0 mm 42 W/m2
18:30 11.5 °C 0.6 °C 1018.2 hPa WNW 1.6 km/h 3.2 km/h 47% 0 mm 42 W/m2
18:36 11.4 °C 0.5 °C 1018.2 hPa NW 3.2 km/h 4.8 km/h 47% 0 mm 37 W/m2
18:42 11.3 °C 0.1 °C 1018.2 hPa SW 4.8 km/h 4.8 km/h 46% 0 mm 39 W/m2
18:48 11.2 °C 0 °C 1018.2 hPa WNW 3.2 km/h 4.8 km/h 46% 0 mm 33 W/m2
18:54 11.1 °C -0.1 °C 1018.2 hPa WNW 3.2 km/h 4.8 km/h 46% 0 mm 33 W/m2
19:00 11.1 °C 0.2 °C 1018.2 hPa West 3.2 km/h 4.8 km/h 47% 0 mm 35 W/m2
19:06 11 °C 0.1 °C 1018.2 hPa WNW 3.2 km/h 4.8 km/h 47% 0 mm 39 W/m2
19:12 10.8 °C 0.2 °C 1018.2 hPa WNW 1.6 km/h 4.8 km/h 48% 0 mm 39 W/m2
19:16 10.8 °C -0.1 °C 1018.2 hPa NW 1.6 km/h 9.7 km/h 47% 0 mm 25 W/m2
19:22 10.7 °C -0.2 °C 1018.2 hPa NW 3.2 km/h 4.8 km/h 47% 0 mm 40 W/m2
19:28 10.6 °C 0.1 °C 1018.2 hPa NW 1.6 km/h 4.8 km/h 48% 0 mm 21 W/m2
19:34 10.4 °C 0.4 °C 1018.5 hPa NW 1.6 km/h 3.2 km/h 50% 0 mm 30 W/m2
19:40 10.3 °C 0.6 °C 1018.5 hPa Calm     51% 0 mm 16 W/m2
19:46 10.1 °C 0.2 °C 1018.8 hPa Calm   1.6 km/h 50% 0 mm 14 W/m2
19:52 10 °C -0.2 °C 1018.8 hPa Calm     49% 0 mm 11 W/m2
19:58 10 °C -0.2 °C 1018.8 hPa Calm   3.2 km/h 49% 0 mm 7 W/m2
20:04 9.9 °C -0.3 °C 1018.8 hPa Calm   3.2 km/h 49% 0 mm 5 W/m2
20:10 9.8 °C 0.1 °C 1018.8 hPa Calm     51% 0 mm 0 W/m2
20:14 9.6 °C -0.1 °C 1018.8 hPa Calm     51% 0 mm 0 W/m2
20:20 9.4 °C 0 °C 1019.2 hPa Calm     52% 0 mm 0 W/m2
20:26 9.1 °C 0 °C 1019.2 hPa Calm     53% 0 mm 0 W/m2
20:32 8.8 °C 0.5 °C 1019.5 hPa Calm     56% 0 mm 0 W/m2
20:38 8.4 °C 0.4 °C 1019.9 hPa Calm     57% 0 mm 0 W/m2
20:44 8.2 °C 0.6 °C 1019.9 hPa Calm     59% 0 mm 0 W/m2
20:50 8 °C 0.9 °C 1020.2 hPa Calm     61% 0 mm 0 W/m2
20:56 7.8 °C 1 °C 1020.5 hPa Calm     62% 0 mm 0 W/m2
21:02 7.6 °C 2.2 °C 1020.5 hPa Calm     69% 0 mm 0 W/m2
21:08 7.2 °C 1.4 °C 1020.5 hPa Calm     67% 0 mm 0 W/m2
21:14 6.9 °C 0.8 °C 1020.9 hPa Calm     65% 0 mm 0 W/m2
21:20 6.8 °C 0.5 °C 1021.2 hPa Calm     64% 0 mm 0 W/m2
21:26 6.8 °C 0.7 °C 1021.2 hPa Calm     65% 0 mm 0 W/m2
21:32 6.7 °C 0.8 °C 1021.2 hPa Calm     66% 0 mm 0 W/m2
21:38 6.4 °C 0.8 °C 1021.2 hPa Calm     67% 0 mm 0 W/m2
21:44 6.3 °C 0.8 °C 1021.6 hPa Calm     68% 0 mm 0 W/m2
21:50 6.2 °C 1.3 °C 1021.6 hPa Calm     71% 0 mm 0 W/m2
21:56 6.1 °C 1.6 °C 1021.6 hPa Calm     73% 0 mm 0 W/m2
22:02 5.8 °C 1.4 °C 1021.6 hPa Calm     73% 0 mm 0 W/m2
22:08 5.6 °C 1.2 °C 1021.9 hPa Calm     73% 0 mm 0 W/m2
22:14 5.5 °C 1.1 °C 1021.9 hPa Calm     73% 0 mm 0 W/m2
22:20 5.4 °C 1.2 °C 1022.2 hPa Calm     74% 0 mm 0 W/m2
22:26 5.5 °C 1.2 °C 1022.2 hPa Calm     74% 0 mm 0 W/m2
22:32 5.6 °C 1.3 °C 1022.2 hPa Calm     74% 0 mm 0 W/m2
22:38 5.6 °C 1.4 °C 1021.9 hPa Calm     75% 0 mm 0 W/m2
22:44 5.4 °C 1.3 °C 1021.9 hPa Calm     75% 0 mm 0 W/m2
22:50 5.3 °C 1.4 °C 1022.2 hPa Calm     76% 0 mm 0 W/m2
22:56 5.1 °C 1.2 °C 1022.2 hPa Calm     76% 0 mm 0 W/m2
23:02 4.8 °C 1.5 °C 1022.2 hPa Calm     79% 0 mm 0 W/m2
23:08 4.7 °C 1.3 °C 1022.6 hPa Calm     79% 0 mm 0 W/m2
23:14 4.5 °C 1.2 °C 1022.6 hPa Calm     79% 0 mm 0 W/m2
23:20 4.4 °C 1.1 °C 1022.6 hPa Calm     79% 0 mm 0 W/m2
23:26 4.3 °C 1.1 °C 1022.6 hPa Calm     80% 0 mm 0 W/m2
23:32 4.2 °C 1.2 °C 1022.6 hPa Calm     81% 0 mm 0 W/m2
23:38 4.1 °C 1.1 °C 1022.6 hPa Calm     81% 0 mm 0 W/m2
23:44 3.9 °C 1.2 °C 1022.2 hPa Calm     82% 0 mm 0 W/m2
23:50 3.9 °C 1.3 °C 1022.2 hPa Calm     83% 0 mm 0 W/m2
23:56 3.9 °C 1.1 °C 1022.2 hPa Calm     82% 0 mm 0 W/m2
Country Meadow, Clay, NY, USA
Compliments of Weather Underground - 2 mb